CYNL

METAR CYNL 280500Z AUTO 14004KT 9SM OVC076 M10/M13 A2991 RMK AO1 SLP175
METAR
LOCATION
CYNL
DATE - TIME
280500Z
WIND
140 TRUE @ 4 KNOTS
VISIBILITY
9SM
RUNWAY VISUAL RANGE
NOT REPORTED
WEATHER
CLOUDINESS
OVC076
TEMP / DEWPOINT
-10 ºC / -13 ºC
ALTIMETER
29.91 in. Hg
RECENT WEATHER
NOT REPORTED
WIND SHEAR
NOT REPORTED
REMARKS
RMK AO1 SLP175
SEA LEVEL PRESSURE: hPa

CYNL

METAR CYNL 280400Z AUTO 17006KT 9SM OVC074 M10/M13 A2991 RMK AO1 SLP177
METAR
LOCATION
CYNL
DATE - TIME
280400Z
WIND
170 TRUE @ 6 KNOTS
VISIBILITY
9SM
RUNWAY VISUAL RANGE
NOT REPORTED
WEATHER
CLOUDINESS
OVC074
TEMP / DEWPOINT
-10 ºC / -13 ºC
ALTIMETER
29.91 in. Hg
RECENT WEATHER
NOT REPORTED
WIND SHEAR
NOT REPORTED
REMARKS
RMK AO1 SLP177
SEA LEVEL PRESSURE: hPa

CYNL

METAR CYNL 280300Z AUTO 15005KT 9SM FEW074 M11/M13 A2991 RMK AO1 SLP181
METAR
LOCATION
CYNL
DATE - TIME
280300Z
WIND
150 TRUE @ 5 KNOTS
VISIBILITY
9SM
RUNWAY VISUAL RANGE
NOT REPORTED
WEATHER
CLOUDINESS
FEW074
TEMP / DEWPOINT
-11 ºC / -13 ºC
ALTIMETER
29.91 in. Hg
RECENT WEATHER
NOT REPORTED
WIND SHEAR
NOT REPORTED
REMARKS
RMK AO1 SLP181
SEA LEVEL PRESSURE: hPa

Your time UTC time
 
 
Weather data provided by AXYS Technologies Inc., www.axystechnologies.com
 
Station History